Time;durP1;ratioP1;P1;durP2;ratioP2;P2;SDS_P1;SDS_P2;PMS_P1;PMS_P2;Temp;Humidity;BMP_temperature;BMP_pressure;BME280_temperature;BME280_humidity;BME280_pressure;Samples;Min_cycle;Max_cycle;Signal;HPM_P1;HPM_P2
2022/07/08 00:00:51;;;;;;;10.03;7.42;;;;;;;17.53;84.37;100810.68;3581171;81;99002;-84
2022/07/08 00:05:53;;;;;;;10.53;8.50;;;;;;;17.52;84.46;100808.52;3551869;81;31910;-85
2022/07/08 00:10:55;;;;;;;10.50;7.90;;;;;;;17.51;84.54;100805.55;3566710;81;98828;-84
2022/07/08 00:15:56;;;;;;;9.77;7.43;;;;;;;17.52;85.08;100804.34;3566578;80;99144;-85
2022/07/08 00:20:57;;;;;;;10.13;7.03;;;;;;;17.52;84.73;100811.89;3504454;82;98947;-85
2022/07/08 00:25:58;;;;;;;12.00;8.90;;;;;;;17.53;84.55;100813.46;3466746;83;99024;-84
2022/07/08 00:30:59;;;;;;;10.78;8.03;;;;;;;17.57;84.03;100819.20;3442637;84;99099;-83
2022/07/08 00:36:00;;;;;;;12.35;9.30;;;;;;;17.60;84.30;100825.31;3564962;82;30078;-83
2022/07/08 00:41:02;;;;;;;11.90;8.73;;;;;;;17.62;84.63;100823.52;3553425;81;99277;-83
2022/07/08 00:46:05;;;;;;;10.53;7.78;;;;;;;17.62;84.57;100829.08;3565486;80;98816;-82
2022/07/08 00:51:10;;;;;;;11.40;7.47;;;;;;;17.61;84.56;100827.50;3549537;80;99060;-82
2022/07/08 00:56:11;;;;;;;10.68;7.87;;;;;;;17.59;84.50;100828.50;3573585;82;99031;-84
2022/07/08 01:01:12;;;;;;;9.85;7.37;;;;;;;17.58;84.81;100838.86;3551721;81;98975;-82
2022/07/08 01:06:13;;;;;;;8.70;6.10;;;;;;;17.56;84.45;100844.66;3562369;81;30422;-83
2022/07/08 01:11:15;;;;;;;10.13;6.70;;;;;;;17.54;84.09;100843.67;3575158;80;99187;-82
2022/07/08 01:16:16;;;;;;;10.32;6.90;;;;;;;17.53;84.32;100853.23;3545402;81;98940;-84
2022/07/08 01:21:17;;;;;;;9.40;6.25;;;;;;;17.52;84.24;100867.55;3531545;81;99369;-83
2022/07/08 01:26:18;;;;;;;10.30;6.08;;;;;;;17.48;84.14;100868.98;3525442;82;99096;-83
2022/07/08 01:31:19;;;;;;;8.13;5.20;;;;;;;17.47;84.00;100867.41;3512997;83;99912;-83
2022/07/08 01:36:20;;;;;;;7.83;5.28;;;;;;;17.47;84.05;100867.99;3520005;81;99001;-83
2022/07/08 01:41:21;;;;;;;7.47;5.07;;;;;;;17.48;84.17;100868.98;3581200;82;26396;-83
2022/07/08 01:46:22;;;;;;;7.73;5.27;;;;;;;17.46;84.11;100878.36;3556903;80;98997;-83
2022/07/08 01:51:23;;;;;;;6.40;4.40;;;;;;;17.47;84.00;100874.36;3582398;81;99099;-84
2022/07/08 01:56:24;;;;;;;7.20;4.87;;;;;;;17.46;84.03;100874.19;3561126;82;98972;-83
2022/07/08 02:01:25;;;;;;;6.87;4.50;;;;;;;17.45;83.87;100885.09;3584519;81;99387;-83
2022/07/08 02:06:26;;;;;;;8.33;3.87;;;;;;;17.41;84.38;100884.37;3540621;82;99637;-82
2022/07/08 02:16:48;;;;;;;8.03;4.30;;;;;;;17.38;84.23;100878.80;3525180;82;98823;-84
2022/07/08 02:21:49;;;;;;;7.35;3.85;;;;;;;17.40;84.26;100880.01;3458924;84;98741;-83
2022/07/08 02:26:50;;;;;;;8.08;4.47;;;;;;;17.41;84.45;100882.17;3520884;81;99182;-84
2022/07/08 02:31:51;;;;;;;10.35;5.80;;;;;;;17.43;84.79;100885.34;3469125;84;98034;-84
2022/07/08 02:36:53;;;;;;;9.38;5.53;;;;;;;17.41;84.67;100887.15;3459230;82;99051;-82
2022/07/08 02:41:54;;;;;;;9.73;6.70;;;;;;;17.41;84.79;100894.69;3458868;84;33551;-83
2022/07/08 02:46:55;;;;;;;12.88;7.85;;;;;;;17.43;84.69;100890.92;3547461;82;99006;-83
2022/07/08 02:51:56;;;;;;;15.55;8.43;;;;;;;17.45;84.85;100898.24;3520649;83;98928;-83
2022/07/08 02:56:57;;;;;;;16.20;8.75;;;;;;;17.44;85.29;100898.05;3544349;82;99536;-83
2022/07/08 03:01:58;;;;;;;14.93;9.25;;;;;;;17.43;85.25;100900.66;3532194;81;99058;-83
2022/07/08 03:06:59;;;;;;;15.72;9.20;;;;;;;17.42;85.56;100903.22;3576922;82;99254;-83
2022/07/08 03:12:00;;;;;;;17.92;10.70;;;;;;;17.43;85.56;100911.78;3580366;81;33220;-83
2022/07/08 03:17:00;;;;;;;20.88;12.70;;;;;;;17.43;85.54;100913.95;3574271;82;99486;-83
2022/07/08 03:22:02;;;;;;;20.57;11.55;;;;;;;17.45;85.61;100916.33;3580017;82;98982;-83
2022/07/08 03:27:04;;;;;;;18.87;11.38;;;;;;;17.46;85.60;100921.49;3580694;82;99563;-84
2022/07/08 03:32:06;;;;;;;28.47;12.60;;;;;;;17.48;85.83;100931.59;3572393;81;99605;-83
2022/07/08 03:37:07;;;;;;;22.00;12.93;;;;;;;17.44;86.11;100933.61;3573758;80;99158;-84
2022/07/08 03:42:08;;;;;;;18.75;11.63;;;;;;;17.41;86.22;100940.61;3577015;81;32357;-86
2022/07/08 03:47:09;;;;;;;18.35;11.80;;;;;;;17.42;86.12;100946.36;3579727;82;99166;-83
2022/07/08 03:52:10;;;;;;;18.15;12.45;;;;;;;17.43;85.90;100956.31;3584491;81;99154;-82
2022/07/08 03:57:11;;;;;;;23.77;14.45;;;;;;;17.44;85.88;100949.54;3571175;81;99264;-82
2022/07/08 04:02:12;;;;;;;24.55;13.20;;;;;;;17.44;86.04;100953.72;3562081;81;99156;-84
2022/07/08 04:07:13;;;;;;;25.72;12.75;;;;;;;17.47;85.98;100960.64;3585280;81;99318;-83
2022/07/08 04:12:14;;;;;;;23.45;13.90;;;;;;;17.49;86.00;100974.15;3600677;81;30590;-82
2022/07/08 04:17:15;;;;;;;18.95;11.60;;;;;;;17.53;86.27;100978.47;3571290;81;99609;-84
2022/07/08 04:22:16;;;;;;;23.30;11.60;;;;;;;17.54;85.96;100987.62;3598874;80;98994;-83
2022/07/08 04:27:17;;;;;;;22.77;11.45;;;;;;;17.56;86.26;100984.59;3573436;81;99582;-83
2022/07/08 04:32:18;;;;;;;17.05;8.50;;;;;;;17.58;86.61;100986.38;3577864;81;99114;-83
2022/07/08 04:37:19;;;;;;;20.00;8.70;;;;;;;17.63;86.50;100987.34;3566060;81;99326;-83
2022/07/08 04:42:20;;;;;;;17.73;8.63;;;;;;;17.66;86.56;100992.69;3576032;81;99004;-82
2022/07/08 04:47:21;;;;;;;14.80;8.93;;;;;;;17.68;86.63;100995.84;3636724;79;99005;-82
2022/07/08 04:52:22;;;;;;;19.77;9.57;;;;;;;17.65;86.72;101006.42;3668514;80;98858;-83
2022/07/08 04:57:23;;;;;;;17.33;9.43;;;;;;;17.66;86.76;100999.64;3639956;79;99108;-85
2022/07/08 05:02:24;;;;;;;15.83;8.50;;;;;;;17.69;86.85;101005.18;3661279;79;99094;-83
2022/07/08 05:07:25;;;;;;;17.53;8.60;;;;;;;17.72;86.55;101004.95;3626622;80;99083;-84
2022/07/08 05:12:26;;;;;;;20.67;9.20;;;;;;;17.76;86.68;101014.08;3636966;79;99449;-84
2022/07/08 05:17:27;;;;;;;17.07;9.03;;;;;;;17.80;86.49;101014.23;3632651;80;99141;-83
2022/07/08 05:22:28;;;;;;;22.23;9.87;;;;;;;17.84;86.26;101023.34;3548590;82;98813;-83
2022/07/08 05:27:29;;;;;;;18.87;9.03;;;;;;;17.86;86.26;101033.47;3518727;82;99250;-85
2022/07/08 05:32:30;;;;;;;13.70;8.05;;;;;;;17.88;86.36;101035.23;3568618;81;99005;-83
2022/07/08 05:37:32;;;;;;;15.70;9.13;;;;;;;17.92;86.07;101049.91;3561068;81;98981;-83
2022/07/08 05:42:33;;;;;;;15.58;9.08;;;;;;;17.97;86.05;101046.69;3566570;81;99705;-83
2022/07/08 05:47:34;;;;;;;21.90;9.07;;;;;;;18.04;85.87;101052.19;3554664;81;98788;-88
2022/07/08 05:52:35;;;;;;;16.13;7.80;;;;;;;18.11;85.72;101054.13;3562959;81;99211;-88
2022/07/08 05:57:36;;;;;;;16.97;8.60;;;;;;;18.20;85.46;101055.22;3513325;82;98925;-91
2022/07/08 06:02:37;;;;;;;16.27;8.00;;;;;;;18.27;85.34;101057.15;3530300;83;99479;-87
2022/07/08 06:07:38;;;;;;;18.37;7.67;;;;;;;18.30;85.06;101058.50;3555094;81;99137;-88
2022/07/08 06:12:39;;;;;;;14.70;7.57;;;;;;;18.43;84.91;101056.79;3581056;81;99080;-87
2022/07/08 06:17:40;;;;;;;16.70;7.37;;;;;;;18.52;84.65;101065.46;3554881;81;98790;-86
2022/07/08 06:22:42;;;;;;;13.53;6.93;;;;;;;18.60;84.30;101071.75;3624394;79;98910;-86
2022/07/08 06:27:43;;;;;;;15.10;7.87;;;;;;;18.65;84.28;101081.83;3628671;80;99289;-86
2022/07/08 06:32:43;;;;;;;13.23;6.57;;;;;;;18.69;84.10;101095.14;3635683;79;99040;-94
2022/07/08 06:37:44;;;;;;;16.47;6.40;;;;;;;18.73;83.68;101095.09;3641708;79;99211;-85
2022/07/08 06:42:47;;;;;;;14.98;6.67;;;;;;;18.78;83.41;101097.42;3564189;81;99054;-87
2022/07/08 06:47:48;;;;;;;12.40;5.05;;;;;;;18.84;83.07;101100.74;3533871;82;99125;-87
2022/07/08 06:52:49;;;;;;;15.00;6.30;;;;;;;18.95;82.67;101101.41;3518342;82;98989;-86
2022/07/08 06:57:50;;;;;;;14.87;6.20;;;;;;;19.02;82.74;101106.89;3629211;80;99001;-90
2022/07/08 07:02:51;;;;;;;16.93;6.22;;;;;;;19.04;82.38;101112.06;3572898;81;99053;-87
2022/07/08 07:07:52;;;;;;;18.92;7.00;;;;;;;19.06;82.09;101116.60;3606864;79;99118;-86
2022/07/08 07:12:54;;;;;;;13.70;5.30;;;;;;;19.10;81.90;101127.12;3518256;81;99488;-88
2022/07/08 07:17:55;;;;;;;14.50;5.35;;;;;;;19.07;81.79;101127.98;3481612;83;98726;-85
2022/07/08 07:22:56;;;;;;;14.87;6.10;;;;;;;19.04;81.82;101135.77;3483448;83;98888;-86
2022/07/08 07:27:57;;;;;;;12.95;5.67;;;;;;;18.98;81.92;101131.87;3481319;83;99018;-85
2022/07/08 07:32:58;;;;;;;14.40;5.80;;;;;;;19.04;82.02;101128.20;3514502;82;99048;-86
2022/07/08 07:37:59;;;;;;;17.70;5.75;;;;;;;19.20;82.13;101132.59;3596644;80;99305;-85
2022/07/08 07:42:59;;;;;;;11.65;4.90;;;;;;;19.46;82.40;101137.43;3613103;80;99023;-86
2022/07/08 07:48:00;;;;;;;15.75;4.92;;;;;;;19.79;82.01;101131.58;3599396;81;99041;-89
2022/07/08 07:53:01;;;;;;;12.63;5.22;;;;;;;20.20;81.56;101137.12;3607785;80;98795;-89
2022/07/08 07:58:03;;;;;;;13.25;4.97;;;;;;;20.68;80.38;101138.85;3607458;80;98802;-87
2022/07/08 08:03:04;;;;;;;14.07;5.15;;;;;;;21.19;79.17;101133.27;3601658;80;99010;-84
2022/07/08 08:08:06;;;;;;;14.15;5.40;;;;;;;21.51;77.62;101138.95;3633443;80;98880;-86
2022/07/08 08:13:07;;;;;;;11.95;5.45;;;;;;;21.81;76.10;101139.50;3661355;79;99038;-86
2022/07/08 08:18:08;;;;;;;12.00;5.30;;;;;;;22.07;75.20;101143.28;3647837;80;99072;-86
2022/07/08 08:23:10;;;;;;;11.75;5.62;;;;;;;22.40;75.04;101137.19;3660748;80;99164;-84
2022/07/08 08:28:11;;;;;;;12.03;4.95;;;;;;;23.02;74.20;101130.31;3647205;79;98997;-91
2022/07/08 08:33:12;;;;;;;12.50;5.15;;;;;;;23.26;70.98;101133.84;3658112;79;99049;-88
2022/07/08 08:38:13;;;;;;;11.08;4.72;;;;;;;23.26;69.37;101133.84;3576991;82;99036;-87
2022/07/08 08:43:14;;;;;;;12.07;4.58;;;;;;;23.58;69.76;101130.85;3583736;80;99016;-86
2022/07/08 08:48:17;;;;;;;11.22;4.40;;;;;;;24.33;69.53;101125.20;3572792;81;98763;-88
2022/07/08 08:53:26;;;;;;;10.70;4.33;;;;;;;24.88;66.43;101127.89;3504287;82;98675;-87
2022/07/08 08:58:27;;;;;;;11.33;4.17;;;;;;;25.19;65.54;101132.36;3573599;81;99330;-88
2022/07/08 09:03:28;;;;;;;9.18;4.33;;;;;;;25.43;63.67;101133.46;3583783;81;99475;-87
2022/07/08 09:08:29;;;;;;;9.43;3.72;;;;;;;25.44;62.29;101134.27;3526953;80;98891;-89
2022/07/08 09:13:30;;;;;;;8.28;3.45;;;;;;;25.38;61.23;101127.63;3547719;82;98049;-89
2022/07/08 09:18:38;;;;;;;9.08;3.90;;;;;;;25.33;60.66;101129.02;3537973;80;98914;-86
2022/07/08 09:23:39;;;;;;;9.60;3.45;;;;;;;25.53;61.03;101128.04;3535816;82;26490;-87
2022/07/08 09:28:43;;;;;;;11.38;3.77;;;;;;;26.13;60.07;101130.65;3530296;82;98997;-87
2022/07/08 09:33:44;;;;;;;9.55;3.85;;;;;;;26.60;56.75;101126.81;3539044;81;99237;-90
2022/07/08 09:38:45;;;;;;;18.65;3.22;;;;;;;26.92;56.98;101126.19;3536598;82;99369;-93
2022/07/08 09:43:49;;;;;;;7.75;3.10;;;;;;;27.65;55.93;101136.13;3516370;83;99367;-87
2022/07/08 09:48:50;;;;;;;6.40;2.60;;;;;;;28.54;53.62;101128.44;3542336;81;98946;-90
2022/07/08 09:53:51;;;;;;;9.25;1.57;;;;;;;29.12;51.92;101121.51;3550200;83;34846;-87
2022/07/08 09:58:52;;;;;;;4.70;1.80;;;;;;;29.39;48.91;101124.06;3544497;82;98660;-89
2022/07/08 10:03:54;;;;;;;3.87;1.60;;;;;;;29.21;47.88;101145.50;3530800;81;98721;-89
2022/07/08 10:08:55;;;;;;;5.47;1.92;;;;;;;29.01;48.35;101144.61;3531852;82;98928;-89
2022/07/08 10:13:57;;;;;;;3.60;1.57;;;;;;;29.24;48.49;101143.12;3533231;82;98847;-94
2022/07/08 10:18:58;;;;;;;3.98;1.70;;;;;;;29.38;47.38;101128.80;3523627;82;98806;-90
2022/07/08 10:23:59;;;;;;;4.08;1.92;;;;;;;29.59;47.55;101145.44;3543902;83;35407;-91
2022/07/08 10:29:05;;;;;;;5.80;2.00;;;;;;;30.19;47.52;101144.86;3533356;83;98701;-89
2022/07/08 10:34:08;;;;;;;6.83;1.90;;;;;;;30.46;46.04;101136.70;3538442;83;98749;-88
2022/07/08 10:39:12;;;;;;;5.20;1.77;;;;;;;30.30;45.05;101134.42;3528395;82;98907;-88
2022/07/08 10:44:15;;;;;;;6.05;1.32;;;;;;;29.74;44.08;101136.92;3506049;82;98817;-87
2022/07/08 10:49:17;;;;;;;4.67;1.80;;;;;;;29.26;44.36;101147.66;3520217;82;98888;-91
2022/07/08 10:54:26;;;;;;;7.17;2.50;;;;;;;28.86;45.24;101156.51;3483857;83;34869;-94
2022/07/08 10:59:37;;;;;;;7.30;2.12;;;;;;;28.83;45.88;101158.26;3507893;83;99255;-90
2022/07/08 11:04:46;;;;;;;8.43;2.52;;;;;;;28.99;46.75;101145.08;3535365;82;97817;-92
2022/07/08 11:09:51;;;;;;;4.65;2.15;;;;;;;29.31;45.38;101149.05;3574243;82;98722;-90
2022/07/08 11:14:59;;;;;;;6.05;2.33;;;;;;;29.04;45.44;101150.08;3574491;81;98045;-94
2022/07/08 11:20:05;;;;;;;4.67;1.80;;;;;;;29.03;44.65;101159.06;3574961;82;98853;-92
2022/07/08 11:25:10;;;;;;;5.78;2.50;;;;;;;28.42;44.61;101164.08;3581118;81;98872;-89
2022/07/08 11:30:14;;;;;;;6.80;2.35;;;;;;;28.05;45.25;101157.02;3529545;82;98384;-87
2022/07/08 11:35:18;;;;;;;7.28;3.55;;;;;;;27.88;46.09;101176.45;3583923;81;97613;-88
2022/07/08 11:40:20;;;;;;;11.70;5.70;;;;;;;27.32;46.56;101186.78;3574405;82;98484;-87
2022/07/08 11:45:21;;;;;;;10.35;4.97;;;;;;;26.71;47.81;101190.67;3539079;82;99391;-85
2022/07/08 11:50:22;;;;;;;13.13;6.42;;;;;;;26.23;48.51;101190.71;3585681;80;99323;-83
2022/07/08 11:55:23;;;;;;;11.93;5.67;;;;;;;25.78;49.53;101190.51;3588265;81;99103;-84
2022/07/08 12:00:27;;;;;;;10.82;5.60;;;;;;;25.32;50.41;101192.27;3556788;81;99158;-85
2022/07/08 12:05:34;;;;;;;5.97;3.42;;;;;;;25.05;51.13;101182.78;3583833;81;43213;-87
2022/07/08 12:10:35;;;;;;;6.55;2.60;;;;;;;25.00;51.21;101176.33;3576904;81;98746;-89
2022/07/08 12:15:37;;;;;;;8.30;2.42;;;;;;;24.99;51.51;101167.11;3589497;81;98808;-87
2022/07/08 12:20:42;;;;;;;5.08;1.70;;;;;;;25.03;50.56;101169.79;3571829;81;98902;-88
2022/07/08 12:25:49;;;;;;;4.73;1.90;;;;;;;24.86;50.35;101173.42;3586386;81;98878;-89
2022/07/08 12:30:50;;;;;;;5.92;1.70;;;;;;;24.78;50.02;101170.68;3570521;81;98851;-89
2022/07/08 12:35:51;;;;;;;3.60;1.62;;;;;;;24.79;49.92;101170.84;3577555;81;34868;-86
2022/07/08 12:40:52;;;;;;;7.87;1.90;;;;;;;24.72;49.80;101162.66;3580921;81;98721;-85
2022/07/08 12:45:53;;;;;;;4.97;1.55;;;;;;;24.64;50.07;101176.03;3577620;81;98747;-87
2022/07/08 12:50:54;;;;;;;5.00;1.60;;;;;;;24.55;50.57;101173.08;3582014;80;99020;-87
2022/07/08 12:55:55;;;;;;;3.15;1.30;;;;;;;24.42;50.39;101163.89;3588134;81;98821;-88
2022/07/08 13:00:56;;;;;;;6.08;1.45;;;;;;;24.33;50.61;101166.61;3580627;81;98927;-88
2022/07/08 13:05:58;;;;;;;6.17;1.40;;;;;;;24.20;51.05;101159.59;3585955;81;35444;-88
2022/07/08 13:11:08;;;;;;;4.53;1.40;;;;;;;24.12;51.17;101160.27;3542916;81;98780;-85
2022/07/08 13:16:08;;;;;;;7.47;1.72;;;;;;;24.15;51.92;101162.20;3539552;81;97766;-87
2022/07/08 13:21:09;;;;;;;5.72;1.40;;;;;;;24.13;52.10;101147.17;3531832;82;98819;-86
2022/07/08 13:26:10;;;;;;;6.25;1.92;;;;;;;24.32;52.54;101138.30;3543763;82;98839;-87
2022/07/08 13:31:12;;;;;;;5.95;1.60;;;;;;;24.52;52.42;101144.45;3543309;82;98903;-87
2022/07/08 13:36:16;;;;;;;4.75;1.20;;;;;;;24.52;51.46;101142.41;3549326;83;34861;-89
2022/07/08 13:41:18;;;;;;;7.50;1.70;;;;;;;24.55;50.93;101142.92;3541534;83;98459;-90
2022/07/08 13:46:19;;;;;;;5.33;1.10;;;;;;;24.42;50.84;101140.74;3543098;82;98842;-89
2022/07/08 13:51:20;;;;;;;5.05;1.27;;;;;;;24.40;51.69;101147.45;3545374;82;98889;-94
2022/07/08 13:56:23;;;;;;;4.70;1.50;;;;;;;24.52;52.25;101145.86;3536795;82;99272;-88
2022/07/08 14:01:24;;;;;;;8.78;1.80;;;;;;;24.44;51.86;101160.00;3530029;82;98891;-88
2022/07/08 14:06:26;;;;;;;8.83;1.62;;;;;;;24.19;51.88;101169.27;3536670;82;98974;-87
2022/07/08 14:11:27;;;;;;;7.40;2.00;;;;;;;23.88;52.03;101169.70;3512425;82;25868;-83
2022/07/08 14:16:29;;;;;;;9.03;2.42;;;;;;;23.77;52.48;101168.42;3582653;80;98919;-88
2022/07/08 14:21:30;;;;;;;7.17;2.00;;;;;;;23.56;52.70;101172.67;3582424;81;99527;-88
2022/07/08 14:26:31;;;;;;;7.17;2.10;;;;;;;23.33;53.16;101165.16;3581088;81;98925;-86
2022/07/08 14:31:32;;;;;;;7.80;2.62;;;;;;;23.09;53.59;101166.00;3591506;81;98807;-85
2022/07/08 14:36:33;;;;;;;8.93;2.35;;;;;;;22.87;53.96;101164.23;3547691;81;98853;-87
2022/07/08 14:41:34;;;;;;;9.85;2.25;;;;;;;22.55;54.16;101164.32;3560469;82;35081;-89
2022/07/08 14:46:35;;;;;;;8.70;3.35;;;;;;;22.39;54.83;101162.91;3543719;82;98735;-86
2022/07/08 14:51:36;;;;;;;7.78;2.05;;;;;;;22.19;54.74;101167.17;3555307;81;99335;-90
2022/07/08 14:56:37;;;;;;;7.72;2.35;;;;;;;22.04;55.08;101167.97;3545488;82;99242;-83
2022/07/08 15:01:38;;;;;;;8.93;2.37;;;;;;;21.85;55.37;101171.64;3545330;81;98760;-84
2022/07/08 15:06:40;;;;;;;11.40;3.10;;;;;;;21.71;55.64;101176.95;3547988;81;98924;-84
2022/07/08 15:11:41;;;;;;;8.38;1.72;;;;;;;21.59;55.96;101185.20;3484158;84;34884;-85
2022/07/08 15:16:43;;;;;;;8.93;1.82;;;;;;;21.46;55.99;101174.47;3457335;84;98760;-85
2022/07/08 15:21:44;;;;;;;6.08;2.10;;;;;;;21.37;56.01;101175.68;3472421;84;98765;-86
2022/07/08 15:26:45;;;;;;;6.37;2.40;;;;;;;21.28;56.17;101172.06;3513396;83;99190;-89
2022/07/08 15:31:48;;;;;;;9.43;2.05;;;;;;;21.17;56.40;101174.30;3514092;82;98859;-87
2022/07/08 15:36:49;;;;;;;10.08;2.25;;;;;;;21.13;56.30;101175.56;3452075;84;99019;-87
2022/07/08 15:41:50;;;;;;;7.80;2.17;;;;;;;21.19;56.14;101162.67;3515750;83;34994;-86
2022/07/08 15:46:51;;;;;;;10.25;2.27;;;;;;;21.33;56.56;101170.16;3509746;83;98995;-88
2022/07/08 15:51:52;;;;;;;7.12;2.70;;;;;;;21.51;56.75;101171.16;3474828;84;98889;-89
2022/07/08 15:56:53;;;;;;;9.03;2.23;;;;;;;21.66;56.66;101180.23;3515794;83;98485;-88
2022/07/08 16:01:54;;;;;;;7.60;1.90;;;;;;;21.86;56.20;101173.98;3474244;83;98917;-90
2022/07/08 16:06:58;;;;;;;6.62;1.55;;;;;;;22.01;55.98;101176.64;3466990;84;98789;-89
2022/07/08 16:11:59;;;;;;;6.22;1.82;;;;;;;22.13;55.76;101188.55;3500186;82;35222;-89
2022/07/08 16:17:00;;;;;;;10.25;1.95;;;;;;;22.11;55.10;101198.63;3540271;82;98668;-85
2022/07/08 16:22:01;;;;;;;8.00;1.95;;;;;;;22.11;54.75;101191.02;3537719;82;99242;-90
2022/07/08 16:27:02;;;;;;;4.83;1.62;;;;;;;22.07;54.71;101197.95;3505130;82;98851;-90
2022/07/08 16:32:04;;;;;;;7.67;1.80;;;;;;;22.08;54.46;101192.52;3507783;83;99303;-89
2022/07/08 16:37:06;;;;;;;7.35;2.00;;;;;;;22.13;54.04;101196.20;3488479;83;98840;-93
2022/07/08 16:42:07;;;;;;;6.85;2.15;;;;;;;22.10;54.01;101197.06;3518072;82;34847;-92
2022/07/08 16:47:09;;;;;;;6.20;1.40;;;;;;;22.13;53.78;101199.00;3475835;83;98744;-92
2022/07/08 16:52:10;;;;;;;7.17;1.47;;;;;;;22.12;53.18;101208.02;3512102;83;98747;-90
2022/07/08 16:57:11;;;;;;;6.33;1.70;;;;;;;22.04;52.55;101214.23;3511152;82;98864;-89
2022/07/08 17:02:13;;;;;;;6.55;1.60;;;;;;;21.97;52.62;101209.56;3520633;79;98449;-93
2022/07/08 17:07:14;;;;;;;5.28;1.60;;;;;;;21.90;52.74;101211.14;3505389;82;98810;-88
2022/07/08 17:12:15;;;;;;;6.17;1.45;;;;;;;21.80;52.64;101211.39;3569351;81;33992;-90
2022/07/08 17:17:17;;;;;;;5.47;1.67;;;;;;;21.72;52.82;101219.76;3520620;82;99136;-92
2022/07/08 17:22:19;;;;;;;6.75;1.77;;;;;;;21.60;52.90;101227.41;3583245;80;98627;-87
2022/07/08 17:27:20;;;;;;;6.17;1.80;;;;;;;21.47;53.08;101221.66;3579912;81;98894;-88
2022/07/08 17:32:26;;;;;;;6.03;1.45;;;;;;;21.33;53.33;101227.56;3582591;81;98913;-87
2022/07/08 17:37:27;;;;;;;12.85;2.00;;;;;;;21.16;53.80;101221.71;3575899;81;98919;-90
2022/07/08 17:42:28;;;;;;;5.17;1.60;;;;;;;20.98;54.15;101221.23;3564046;81;35513;-86
2022/07/08 17:47:29;;;;;;;8.68;1.98;;;;;;;20.77;54.69;101226.42;3590859;81;98555;-87
2022/07/08 17:52:30;;;;;;;9.08;1.80;;;;;;;20.63;55.34;101229.45;3580312;81;98734;-87
2022/07/08 17:57:33;;;;;;;6.55;1.87;;;;;;;20.50;55.68;101238.27;3571377;81;99247;-88
2022/07/08 18:02:35;;;;;;;11.25;3.05;;;;;;;20.39;56.21;101241.23;3568086;81;98081;-91
2022/07/08 18:07:36;;;;;;;8.45;2.52;;;;;;;20.26;56.79;101234.66;3546079;81;99150;-87
2022/07/08 18:12:37;;;;;;;6.28;1.55;;;;;;;20.17;57.10;101247.59;3538859;81;99361;-88
2022/07/08 18:17:38;;;;;;;5.12;1.57;;;;;;;20.08;57.47;101252.31;3551577;82;98971;-95
2022/07/08 18:22:39;;;;;;;5.72;1.72;;;;;;;19.99;57.99;101256.20;3540922;82;98736;-89
2022/07/08 18:27:40;;;;;;;4.72;1.50;;;;;;;19.84;58.90;101257.59;3545096;82;98921;-87
2022/07/08 18:32:42;;;;;;;5.33;1.65;;;;;;;19.84;58.90;101257.59;3532086;82;98898;-89
2022/07/08 18:37:43;;;;;;;6.90;1.57;;;;;;;19.80;59.32;101261.66;3538626;82;98894;-92
2022/07/08 18:42:44;;;;;;;9.78;1.50;;;;;;;19.71;59.46;101266.95;3521611;82;98885;-91
2022/07/08 18:47:49;;;;;;;6.62;2.12;;;;;;;19.63;59.94;101279.44;3519284;82;98895;-87
2022/07/08 18:52:48;;;;;;;10.15;3.08;;;;;;;19.51;60.60;101276.58;3505613;82;99226;-92
2022/07/08 18:57:49;;;;;;;4.55;1.85;;;;;;;19.45;61.01;101285.84;3513316;81;99148;-90
2022/07/08 19:02:50;;;;;;;5.33;1.92;;;;;;;19.37;61.43;101281.53;3517204;82;98930;-90
2022/07/08 19:07:51;;;;;;;4.90;2.08;;;;;;;19.27;62.10;101280.45;3512664;83;98726;-90
2022/07/08 19:12:53;;;;;;;3.87;1.45;;;;;;;19.20;62.54;101285.28;3527086;82;98911;-90
2022/07/08 19:17:54;;;;;;;5.80;1.50;;;;;;;19.17;63.04;101287.50;3514430;82;98975;-87
2022/07/08 19:22:55;;;;;;;3.17;1.32;;;;;;;19.05;63.50;101295.00;3541824;82;98724;-85
2022/07/08 19:27:56;;;;;;;4.47;1.35;;;;;;;18.89;64.29;101296.14;3539658;81;99148;-87
2022/07/08 19:32:57;;;;;;;7.25;1.82;;;;;;;18.81;64.75;101304.39;3544287;81;99138;-88
2022/07/08 19:37:58;;;;;;;4.00;1.32;;;;;;;18.76;65.33;101305.64;3534064;80;98733;-84
2022/07/08 19:42:59;;;;;;;5.12;1.30;;;;;;;18.72;65.71;101301.27;3540527;82;98856;-87
2022/07/08 19:48:00;;;;;;;5.33;1.30;;;;;;;18.62;66.17;101304.34;3524589;82;98549;-86
2022/07/08 19:53:01;;;;;;;6.17;1.42;;;;;;;18.58;66.65;101306.98;3532404;83;98671;-88
2022/07/08 19:58:02;;;;;;;5.33;2.00;;;;;;;18.53;67.09;101317.95;3523530;81;98606;-86
2022/07/08 20:03:03;;;;;;;2.90;1.20;;;;;;;18.44;67.87;101326.58;3538524;80;99027;-89
2022/07/08 20:08:04;;;;;;;4.00;1.30;;;;;;;18.30;68.26;101328.02;3524691;82;98782;-90
2022/07/08 20:13:06;;;;;;;4.08;1.70;;;;;;;18.26;68.58;101324.48;3577186;81;99265;-87
2022/07/08 20:18:07;;;;;;;3.60;1.62;;;;;;;18.20;69.15;101331.69;3573177;80;98708;-84
2022/07/08 20:23:08;;;;;;;4.67;1.60;;;;;;;18.20;69.61;101319.92;3578246;82;99195;-85
2022/07/08 20:28:09;;;;;;;4.62;1.65;;;;;;;18.17;69.78;101320.76;3577429;81;98768;-88
2022/07/08 20:33:10;;;;;;;5.53;1.70;;;;;;;18.09;70.13;101321.98;3582161;81;98899;-88
2022/07/08 20:38:11;;;;;;;5.12;1.85;;;;;;;18.08;70.43;101321.79;3577848;81;99097;-87
2022/07/08 20:43:12;;;;;;;5.60;1.92;;;;;;;18.04;70.53;101316.05;3497460;82;98812;-91
2022/07/08 20:48:13;;;;;;;4.87;1.90;;;;;;;18.01;70.74;101306.52;3569871;82;98663;-87
2022/07/08 20:53:14;;;;;;;5.12;1.80;;;;;;;17.97;71.37;101298.77;3574089;80;99215;-88
2022/07/08 20:58:18;;;;;;;7.40;2.33;;;;;;;17.87;71.55;101302.39;3570374;80;99118;-87
2022/07/08 21:03:19;;;;;;;9.25;2.87;;;;;;;17.84;71.96;101293.47;3578285;82;99465;-89
2022/07/08 21:08:21;;;;;;;5.20;1.90;;;;;;;17.76;72.26;101293.30;3510902;81;98930;-89
2022/07/08 21:13:22;;;;;;;5.47;2.27;;;;;;;17.62;72.71;101300.33;3523944;82;98894;-87
2022/07/08 21:18:23;;;;;;;5.67;2.05;;;;;;;17.51;73.29;101295.98;3517634;82;98526;-89
2022/07/08 21:23:24;;;;;;;7.85;3.02;;;;;;;17.41;73.85;101300.98;3523209;82;98531;-89
2022/07/08 21:28:25;;;;;;;7.62;2.40;;;;;;;17.40;74.16;101299.40;3517896;82;99633;-90
2022/07/08 21:33:26;;;;;;;8.05;2.20;;;;;;;17.37;74.18;101298.77;3522006;82;99269;-88
2022/07/08 21:38:27;;;;;;;6.78;2.40;;;;;;;17.24;74.22;101292.05;3477048;83;99031;-88
2022/07/08 21:43:28;;;;;;;9.73;2.37;;;;;;;17.10;74.86;101297.05;3521790;82;98846;-88
2022/07/08 21:48:29;;;;;;;8.13;3.05;;;;;;;16.98;75.18;101289.70;3467196;84;98904;-85
2022/07/08 21:53:31;;;;;;;5.97;2.30;;;;;;;16.87;75.64;101281.39;3461265;84;26063;-85
2022/07/08 21:58:32;;;;;;;8.78;2.45;;;;;;;16.86;76.11;101277.61;3451006;84;98919;-85
2022/07/08 22:03:33;;;;;;;5.33;2.42;;;;;;;16.80;76.17;101279.21;3524433;82;98906;-85
2022/07/08 22:08:34;;;;;;;8.43;2.85;;;;;;;16.75;76.67;101270.69;3461439;84;99454;-85
2022/07/08 22:13:35;;;;;;;5.87;2.60;;;;;;;16.68;76.86;101274.84;3455404;83;98794;-85
2022/07/08 22:18:36;;;;;;;7.80;3.13;;;;;;;16.65;77.40;101267.89;3468282;83;108055;-85
2022/07/08 22:23:37;;;;;;;7.37;2.43;;;;;;;16.58;77.48;101270.06;3512291;84;33556;-85
2022/07/08 22:28:38;;;;;;;17.73;3.33;;;;;;;16.52;77.88;101266.10;3482514;83;99158;-85
2022/07/08 22:33:39;;;;;;;8.93;2.83;;;;;;;16.44;77.99;101254.80;3483535;84;99098;-85
2022/07/08 22:38:40;;;;;;;6.67;2.70;;;;;;;16.38;78.27;101252.77;3479220;84;98665;-86
2022/07/08 22:43:41;;;;;;;8.27;3.50;;;;;;;16.29;78.20;101251.77;3482465;83;98881;-85
2022/07/08 22:48:42;;;;;;;6.73;2.90;;;;;;;16.25;78.74;101241.24;3482830;83;98479;-87
2022/07/08 22:53:42;;;;;;;15.07;3.20;;;;;;;16.21;78.89;101246.61;3512701;83;33626;-85
2022/07/08 22:58:43;;;;;;;8.30;2.85;;;;;;;16.19;79.46;101240.66;3469985;83;99310;-86
2022/07/08 23:03:44;;;;;;;8.00;2.90;;;;;;;16.02;79.50;101214.44;3490077;82;98898;-85
2022/07/08 23:08:45;;;;;;;10.90;3.63;;;;;;;16.13;79.60;101233.91;3456971;84;98947;-85
2022/07/08 23:13:46;;;;;;;7.10;3.10;;;;;;;16.08;79.89;101228.75;3519350;82;99095;-85
2022/07/08 23:18:47;;;;;;;9.17;3.60;;;;;;;16.01;79.87;101221.19;3532093;81;98815;-85